createdAt,value
2022-08-12T00:02:03.434Z,16.55
2022-08-12T00:06:47.903Z,16.43
2022-08-12T00:11:52.076Z,16.37
2022-08-12T00:16:54.253Z,16.23
2022-08-12T00:21:56.362Z,16.08
2022-08-12T00:26:59.937Z,16.08
2022-08-12T00:32:01.922Z,15.97
2022-08-12T00:37:13.236Z,15.82
2022-08-12T00:42:21.054Z,15.71
2022-08-12T00:47:24.584Z,15.67
2022-08-12T00:52:28.105Z,15.66
2022-08-12T00:57:33.293Z,15.51
2022-08-12T01:02:37.676Z,15.36
2022-08-12T01:07:41.339Z,15.28
2022-08-12T01:12:45.274Z,15.29
2022-08-12T01:17:47.437Z,15.24
2022-08-12T01:23:11.460Z,15.21
2022-08-12T01:28:16.995Z,15.20
2022-08-12T01:33:22.480Z,14.97
2022-08-12T01:38:29.930Z,14.79
2022-08-12T01:43:35.215Z,14.90
2022-08-12T01:48:59.173Z,14.80
2022-08-12T01:54:04.817Z,14.66
2022-08-12T01:59:12.223Z,14.48
2022-08-12T02:04:23.760Z,14.51
2022-08-12T02:09:38.651Z,14.46
2022-08-12T02:14:51.814Z,14.34
2022-08-12T02:20:06.155Z,14.19
2022-08-12T02:25:13.775Z,14.08
2022-08-12T02:30:19.882Z,14.13
2022-08-12T02:35:24.318Z,14.13
2022-08-12T02:40:29.390Z,14.06
2022-08-12T02:45:39.017Z,13.96
2022-08-12T02:50:46.674Z,13.85
2022-08-12T02:55:49.287Z,13.79
2022-08-12T03:00:53.082Z,13.83
2022-08-12T03:06:00.179Z,13.70
2022-08-12T03:11:06.194Z,13.64
2022-08-12T03:16:16.114Z,13.65
2022-08-12T03:22:05.809Z,13.68
2022-08-12T03:26:45.640Z,13.47
2022-08-12T03:31:49.111Z,13.53
2022-08-12T03:36:52.930Z,13.52
2022-08-12T03:42:01.550Z,13.54
2022-08-12T03:47:13.072Z,13.53
2022-08-12T03:52:15.364Z,13.45
2022-08-12T03:57:17.403Z,13.48
2022-08-12T04:02:21.413Z,13.49
2022-08-12T04:07:23.616Z,13.54
2022-08-12T04:12:29.273Z,13.57
2022-08-12T04:17:36.866Z,13.54
2022-08-12T04:22:39.510Z,13.68
2022-08-12T04:27:45.098Z,13.76
2022-08-12T04:32:50.463Z,13.78
2022-08-12T04:37:58.242Z,13.87
2022-08-12T04:43:03.439Z,14.03
2022-08-12T04:48:07.717Z,14.14
2022-08-12T04:53:09.887Z,14.36
2022-08-12T04:58:11.988Z,14.83
2022-08-12T05:03:18.487Z,16.31
2022-08-12T05:08:20.528Z,18.38
2022-08-12T05:13:25.592Z,20.42
2022-08-12T05:18:29.433Z,22.40
2022-08-12T05:23:31.289Z,23.80
2022-08-12T05:28:34.268Z,25.06
2022-08-12T05:33:37.809Z,25.82
2022-08-12T05:38:40.642Z,26.26
2022-08-12T05:43:42.664Z,26.43
2022-08-12T05:48:51.249Z,26.82
2022-08-12T05:53:54.253Z,26.50
2022-08-12T05:58:58.011Z,28.19
2022-08-12T06:04:01.690Z,29.48
2022-08-12T06:09:04.048Z,29.96
2022-08-12T06:14:12.131Z,29.42
2022-08-12T06:19:15.562Z,29.99
2022-08-12T06:24:17.682Z,29.72
2022-08-12T06:30:07.113Z,28.77
2022-08-12T06:35:24.167Z,26.43
2022-08-12T06:40:07.046Z,25.99
2022-08-12T06:45:12.330Z,25.73
2022-08-12T06:50:17.467Z,25.06
2022-08-12T06:55:21.413Z,24.77
2022-08-12T07:00:27.936Z,23.94
2022-08-12T07:05:36.316Z,23.63
2022-08-12T07:10:43.226Z,24.16
2022-08-12T07:15:45.036Z,24.44
2022-08-12T07:20:53.240Z,24.34
2022-08-12T07:25:58.414Z,24.50
2022-08-12T07:31:02.192Z,24.74
2022-08-12T07:36:08.133Z,24.97
2022-08-12T07:41:15.525Z,24.95
2022-08-12T07:46:22.030Z,25.08
2022-08-12T07:51:26.803Z,25.35
2022-08-12T07:56:29.402Z,25.50
2022-08-12T08:01:32.511Z,25.84
2022-08-12T08:06:37.279Z,25.91
2022-08-12T08:11:39.496Z,26.08
2022-08-12T08:16:42.408Z,26.15
2022-08-12T08:21:45.479Z,26.34
2022-08-12T08:26:49.548Z,26.44
2022-08-12T08:31:52.753Z,26.53
2022-08-12T08:36:55.782Z,26.81
2022-08-12T08:42:16.165Z,27.00
2022-08-12T08:47:20.454Z,27.21
2022-08-12T08:52:39.442Z,27.27
2022-08-12T08:57:46.444Z,27.48
2022-08-12T09:02:59.527Z,29.24
2022-08-12T09:08:13.240Z,31.84
2022-08-12T09:13:23.172Z,32.55
2022-08-12T09:18:33.628Z,32.09
2022-08-12T09:23:58.559Z,33.05
2022-08-12T09:29:00.612Z,33.40
2022-08-12T09:34:29.363Z,33.80
2022-08-12T09:40:04.554Z,35.66
2022-08-12T09:44:49.148Z,34.53
2022-08-12T09:50:20.192Z,35.45
2022-08-12T09:56:06.399Z,35.06
2022-08-12T10:00:52.703Z,36.21
2022-08-12T10:06:26.956Z,35.66
2022-08-12T10:11:20.811Z,35.90
2022-08-12T10:16:24.184Z,37.01
2022-08-12T10:21:36.343Z,35.82
2022-08-12T10:26:44.799Z,36.20
2022-08-12T10:32:20.672Z,38.46
2022-08-12T10:37:22.739Z,39.26
2022-08-12T10:42:38.939Z,38.22
2022-08-12T10:48:20.056Z,35.92
2022-08-12T10:53:11.864Z,30.57
2022-08-12T10:58:30.863Z,32.30
2022-08-12T11:04:18.803Z,32.98
2022-08-12T11:08:56.454Z,33.19
2022-08-12T11:13:59.831Z,32.02
2022-08-12T11:19:02.962Z,31.85
2022-08-12T11:24:07.355Z,31.66
2022-08-12T11:30:06.404Z,32.66
2022-08-12T11:34:55.079Z,33.47
2022-08-12T11:45:11.437Z,31.33
2022-08-12T11:50:19.077Z,30.31
2022-08-12T11:55:23.223Z,30.30
2022-08-12T12:05:49.461Z,30.52
2022-08-12T12:10:54.322Z,30.47
2022-08-12T12:16:00.148Z,29.75
2022-08-12T12:21:05.559Z,29.61
2022-08-12T12:26:35.644Z,30.89
2022-08-12T12:32:09.207Z,31.39
2022-08-12T12:36:56.519Z,31.89
2022-08-12T12:42:43.229Z,31.02
2022-08-12T12:47:28.672Z,29.78
2022-08-12T12:52:31.484Z,29.17
2022-08-12T12:57:59.327Z,30.68
2022-08-12T13:03:02.924Z,31.76
2022-08-12T13:08:20.279Z,32.35
2022-08-12T13:14:09.118Z,32.14
2022-08-12T13:18:57.273Z,31.98
2022-08-12T13:24:00.718Z,32.29
2022-08-12T13:29:02.965Z,32.28
2022-08-12T13:34:33.583Z,32.64
2022-08-12T13:39:28.640Z,33.04
2022-08-12T13:44:30.904Z,33.27
2022-08-12T13:49:54.773Z,31.93
2022-08-12T13:54:56.933Z,31.06
2022-08-12T14:00:00.834Z,30.66
2022-08-12T14:05:31.251Z,30.32
2022-08-12T14:10:32.128Z,30.97
2022-08-12T14:15:37.772Z,32.15
2022-08-12T14:20:43.775Z,32.15
2022-08-12T14:25:49.827Z,31.97
2022-08-12T14:30:59.598Z,31.42
2022-08-12T14:36:06.905Z,32.14
2022-08-12T14:41:12.643Z,31.71
2022-08-12T14:46:18.645Z,30.55
2022-08-12T14:53:26.743Z,30.34
2022-08-12T14:57:18.872Z,29.84
2022-08-12T15:02:10.299Z,29.85
2022-08-12T15:07:33.449Z,31.18
2022-08-12T15:12:35.846Z,31.77
2022-08-12T15:17:42.879Z,31.97
2022-08-12T15:22:53.582Z,32.10
2022-08-12T15:28:04.301Z,31.81
2022-08-12T15:33:14.827Z,32.04
2022-08-12T15:38:19.788Z,31.89
2022-08-12T15:43:51.262Z,31.74
2022-08-12T15:48:46.520Z,31.35
2022-08-12T15:53:53.385Z,31.61
2022-08-12T15:58:57.505Z,31.58
2022-08-12T16:04:01.052Z,31.54
2022-08-12T16:09:04.827Z,31.56
2022-08-12T16:14:11.878Z,31.61
2022-08-12T16:20:01.833Z,32.15
2022-08-12T16:24:42.117Z,31.09
2022-08-12T16:29:52.850Z,30.38
2022-08-12T16:34:57.531Z,30.19
2022-08-12T16:40:06.169Z,30.52
2022-08-12T16:45:13.900Z,30.16
2022-08-12T16:50:16.437Z,29.70
2022-08-12T16:55:19.696Z,29.18
2022-08-12T17:00:21.765Z,28.87
2022-08-12T17:05:31.243Z,28.63
2022-08-12T17:10:37.204Z,28.78
2022-08-12T17:15:51.169Z,29.05
2022-08-12T17:21:02.684Z,28.93
2022-08-12T17:26:09.691Z,29.37
2022-08-12T17:31:12.683Z,29.17
2022-08-12T17:36:14.383Z,29.29
2022-08-12T17:41:23.199Z,29.24
2022-08-12T17:46:39.992Z,28.82
2022-08-12T17:51:49.952Z,28.53
2022-08-12T17:56:57.758Z,28.42
2022-08-12T18:02:01.161Z,28.15
2022-08-12T18:07:03.460Z,27.87
2022-08-12T18:12:13.000Z,27.67
2022-08-12T18:17:15.637Z,27.54
2022-08-12T18:22:22.098Z,27.45
2022-08-12T18:27:44.705Z,27.32
2022-08-12T18:32:58.447Z,26.93
2022-08-12T18:38:01.778Z,26.56
2022-08-12T18:43:07.977Z,26.32
2022-08-12T18:48:19.925Z,26.16
2022-08-12T18:54:05.269Z,25.68
2022-08-12T18:58:59.659Z,25.27
2022-08-12T19:04:03.502Z,24.98
2022-08-12T19:09:10.132Z,24.76
2022-08-12T19:14:14.721Z,24.60
2022-08-12T19:19:18.290Z,24.36
2022-08-12T19:24:21.544Z,24.15
2022-08-12T19:29:27.635Z,23.91
2022-08-12T19:40:09.770Z,23.29
2022-08-12T19:45:22.183Z,23.16
2022-08-12T19:50:25.118Z,22.86
2022-08-12T19:55:28.856Z,22.78
2022-08-12T20:00:40.644Z,22.76
2022-08-12T20:06:05.633Z,22.67
2022-08-12T20:12:11.962Z,22.42
2022-08-12T20:16:52.662Z,22.32
2022-08-12T20:21:55.030Z,22.26
2022-08-12T20:26:57.212Z,22.26
2022-08-12T20:32:01.660Z,22.12
2022-08-12T20:37:04.518Z,21.82
2022-08-12T20:42:09.939Z,21.69
2022-08-12T20:47:19.618Z,21.61
2022-08-12T20:52:22.683Z,21.61
2022-08-12T20:57:38.395Z,21.45
2022-08-12T21:02:42.125Z,21.25
2022-08-12T21:07:47.786Z,21.12
2022-08-12T21:12:54.920Z,21.05
2022-08-12T21:18:08.701Z,20.88
2022-08-12T21:23:14.307Z,20.67
2022-08-12T21:28:21.089Z,20.52
2022-08-12T21:33:24.766Z,20.33
2022-08-12T21:38:34.719Z,20.27
2022-08-12T21:43:44.909Z,20.17
2022-08-12T21:48:55.862Z,20.01
2022-08-12T21:54:06.827Z,19.91
2022-08-12T21:59:14.723Z,19.81
2022-08-12T22:04:18.595Z,19.79
2022-08-12T22:09:22.622Z,19.56
2022-08-12T22:14:24.384Z,19.46
2022-08-12T22:19:28.084Z,19.45
2022-08-12T22:24:30.822Z,19.26
2022-08-12T22:29:32.960Z,19.25
2022-08-12T22:34:36.836Z,19.18
2022-08-12T22:39:44.056Z,19.18
2022-08-12T22:44:54.335Z,19.17
2022-08-12T22:49:59.826Z,19.32
2022-08-12T22:55:05.665Z,19.55
2022-08-12T23:00:13.144Z,19.78
2022-08-12T23:05:57.680Z,20.00
2022-08-12T23:10:55.216Z,20.10
2022-08-12T23:15:57.002Z,20.04
2022-08-12T23:21:01.378Z,20.00
2022-08-12T23:26:03.368Z,19.90
2022-08-12T23:31:06.632Z,19.70
2022-08-12T23:36:12.630Z,19.47
2022-08-12T23:41:16.590Z,19.29
2022-08-12T23:46:25.648Z,19.09
2022-08-12T23:51:31.987Z,18.87
2022-08-12T23:56:36.182Z,18.68
